Time;durP1;ratioP1;P1;durP2;ratioP2;P2;SDS_P1;SDS_P2;PMS_P1;PMS_P2;Temp;Humidity;BMP_temperature;BMP_pressure;BME280_temperature;BME280_humidity;BME280_pressure;Samples;Min_cycle;Max_cycle;Signal;HPM_P1;HPM_P2
2022/07/19 00:01:23;;;;;;;4.53;2.03;;;23.70;63.70;;;;;;5071533;28;20049;-62
2022/07/19 00:03:48;;;;;;;3.53;1.70;;;23.70;63.70;;;;;;5071913;28;20549;-62
2022/07/19 00:06:14;;;;;;;4.40;2.05;;;23.70;63.70;;;;;;5072148;28;20127;-61
2022/07/19 00:08:40;;;;;;;4.13;2.00;;;23.70;63.60;;;;;;5070228;28;20044;-62
2022/07/19 00:11:05;;;;;;;4.32;1.70;;;23.70;63.70;;;;;;5071010;28;20395;-62
2022/07/19 00:13:31;;;;;;;3.97;1.90;;;23.70;63.70;;;;;;5071825;28;20476;-61
2022/07/19 00:15:56;;;;;;;3.75;1.85;;;23.70;63.70;;;;;;5080825;28;20518;-61
2022/07/19 00:18:22;;;;;;;3.03;1.73;;;23.70;63.70;;;;;;5092189;28;20044;-62
2022/07/19 00:20:47;;;;;;;5.25;1.75;;;23.70;63.70;;;;;;5089145;28;20082;-62
2022/07/19 00:23:13;;;;;;;4.28;1.90;;;23.70;63.70;;;;;;5092961;28;20132;-62
2022/07/19 00:25:39;;;;;;;3.78;1.83;;;23.70;63.70;;;;;;5096096;28;20089;-61
2022/07/19 00:28:04;;;;;;;4.35;1.80;;;23.70;63.70;;;;;;5093375;28;20040;-61
2022/07/19 00:30:30;;;;;;;3.38;1.80;;;23.70;63.70;;;;;;5096160;28;20127;-62
2022/07/19 00:32:55;;;;;;;5.15;1.95;;;23.70;63.70;;;;;;5094599;28;20044;-61
2022/07/19 00:35:21;;;;;;;6.07;2.28;;;23.70;63.70;;;;;;5095218;28;20068;-61
2022/07/19 00:37:46;;;;;;;3.97;1.92;;;23.70;63.70;;;;;;5095782;28;20083;-62
2022/07/19 00:40:12;;;;;;;3.60;1.95;;;23.70;63.70;;;;;;5095743;28;20040;-62
2022/07/19 00:42:39;;;;;;;4.60;2.03;;;23.60;63.60;;;;;;5093360;28;20048;-61
2022/07/19 00:45:05;;;;;;;3.72;1.85;;;23.70;63.70;;;;;;5095486;28;20048;-61
2022/07/19 00:47:31;;;;;;;4.45;2.05;;;23.70;63.70;;;;;;5093092;28;20040;-61
2022/07/19 00:49:57;;;;;;;3.10;1.55;;;23.60;63.60;;;;;;5094232;28;20394;-61
2022/07/19 00:52:22;;;;;;;4.80;2.15;;;23.60;63.60;;;;;;5095416;28;20549;-61
2022/07/19 00:54:48;;;;;;;3.08;1.65;;;23.60;63.70;;;;;;5077541;28;20051;-62
2022/07/19 00:57:14;;;;;;;3.33;1.75;;;23.60;63.70;;;;;;5092791;28;20508;-61
2022/07/19 00:59:40;;;;;;;4.40;1.77;;;23.60;63.70;;;;;;5076484;28;20048;-62
2022/07/19 01:02:06;;;;;;;3.72;1.83;;;23.60;63.70;;;;;;5056476;28;20140;-61
2022/07/19 01:04:32;;;;;;;4.13;2.13;;;23.60;63.70;;;;;;5073190;28;20041;-61
2022/07/19 01:06:58;;;;;;;4.10;2.13;;;23.60;63.60;;;;;;5039879;28;20102;-61
2022/07/19 01:09:23;;;;;;;5.00;2.60;;;23.60;63.60;;;;;;5073248;28;20480;-62
2022/07/19 01:11:49;;;;;;;4.22;1.98;;;23.60;63.60;;;;;;5072359;28;20056;-61
2022/07/19 01:14:15;;;;;;;4.72;1.98;;;23.60;63.60;;;;;;5057039;28;20516;-61
2022/07/19 01:16:45;;;;;;;4.68;2.00;;;23.60;63.60;;;;;;5074509;28;20480;-61
2022/07/19 01:19:10;;;;;;;3.88;1.92;;;23.60;63.70;;;;;;5074224;28;20041;-62
2022/07/19 01:21:36;;;;;;;3.85;1.85;;;23.60;63.70;;;;;;5074381;28;20067;-61
2022/07/19 01:24:02;;;;;;;4.20;2.05;;;23.60;63.70;;;;;;5072492;28;20170;-62
2022/07/19 01:26:27;;;;;;;3.83;1.83;;;23.60;63.70;;;;;;5073215;28;20037;-61
2022/07/19 01:28:53;;;;;;;3.47;1.88;;;23.60;63.70;;;;;;5074473;28;20045;-62
2022/07/19 01:31:18;;;;;;;4.93;2.08;;;23.60;63.60;;;;;;5073987;28;20048;-62
2022/07/19 01:33:45;;;;;;;2.65;1.60;;;23.60;63.70;;;;;;5072642;28;20045;-61
2022/07/19 01:36:10;;;;;;;3.97;1.67;;;23.60;63.70;;;;;;5073465;28;20458;-61
2022/07/19 01:38:36;;;;;;;3.17;1.83;;;23.60;63.70;;;;;;5073778;28;20498;-62
2022/07/19 01:41:02;;;;;;;3.22;1.98;;;23.60;63.70;;;;;;5073022;28;20040;-62
2022/07/19 01:43:27;;;;;;;3.47;2.00;;;23.60;63.70;;;;;;5074393;28;20056;-61
2022/07/19 01:45:53;;;;;;;4.82;1.80;;;23.60;63.70;;;;;;5073468;28;20051;-61
2022/07/19 01:48:19;;;;;;;4.32;1.90;;;23.60;63.70;;;;;;5072825;28;20483;-62
2022/07/19 01:50:45;;;;;;;3.90;2.10;;;23.60;63.70;;;;;;5074027;28;20049;-62
2022/07/19 01:53:11;;;;;;;4.35;1.95;;;23.60;63.70;;;;;;5073598;28;20093;-62
2022/07/19 01:55:36;;;;;;;2.67;1.70;;;23.60;63.70;;;;;;5072925;28;20048;-62
2022/07/19 01:58:02;;;;;;;3.08;1.75;;;23.60;63.70;;;;;;5073863;28;20048;-62
2022/07/19 02:00:27;;;;;;;4.22;1.98;;;23.60;63.70;;;;;;5073244;28;20044;-61
2022/07/19 02:02:53;;;;;;;3.10;1.90;;;23.60;63.70;;;;;;5072507;28;20043;-61
2022/07/19 02:05:18;;;;;;;4.40;1.80;;;23.60;63.70;;;;;;5072197;28;20106;-62
2022/07/19 02:07:44;;;;;;;3.75;1.80;;;23.60;63.70;;;;;;5072819;28;20051;-62
2022/07/19 02:10:09;;;;;;;3.80;2.38;;;23.60;63.70;;;;;;5073852;28;20113;-62
2022/07/19 02:12:35;;;;;;;2.97;1.70;;;23.50;63.70;;;;;;5073824;28;20098;-62
2022/07/19 02:15:01;;;;;;;3.65;1.83;;;23.50;63.60;;;;;;5072757;28;20037;-62
2022/07/19 02:17:26;;;;;;;3.30;1.92;;;23.50;63.60;;;;;;5073609;28;20044;-62
2022/07/19 02:19:52;;;;;;;3.83;1.88;;;23.50;63.70;;;;;;5071870;28;20044;-62
2022/07/19 02:22:17;;;;;;;3.17;1.80;;;23.50;63.60;;;;;;5073194;28;20048;-62
2022/07/19 02:24:43;;;;;;;3.38;2.00;;;23.50;63.70;;;;;;5072965;28;20052;-62
2022/07/19 02:27:11;;;;;;;3.10;1.75;;;23.50;63.60;;;;;;5073757;28;20086;-62
2022/07/19 02:29:37;;;;;;;4.13;1.80;;;23.50;63.60;;;;;;5073391;28;20041;-62
2022/07/19 02:32:03;;;;;;;3.65;2.10;;;23.50;63.60;;;;;;5073265;28;20044;-62
2022/07/19 02:34:29;;;;;;;4.38;2.00;;;23.50;63.70;;;;;;5071433;28;20048;-61
2022/07/19 02:36:54;;;;;;;4.70;2.00;;;23.50;63.60;;;;;;5073231;28;20041;-61
2022/07/19 02:39:20;;;;;;;3.70;1.90;;;23.50;63.60;;;;;;5073025;28;20155;-61
2022/07/19 02:41:45;;;;;;;3.50;2.08;;;23.50;63.60;;;;;;5072092;28;20041;-61
2022/07/19 02:44:11;;;;;;;3.22;1.90;;;23.50;63.60;;;;;;5072996;28;20052;-62
2022/07/19 02:46:37;;;;;;;3.22;2.20;;;23.50;63.70;;;;;;5071250;28;20048;-61
2022/07/19 02:49:03;;;;;;;3.72;1.85;;;23.50;63.70;;;;;;5071937;28;20048;-62
2022/07/19 02:51:28;;;;;;;4.65;2.25;;;23.50;63.70;;;;;;5073321;28;20033;-62
2022/07/19 02:53:54;;;;;;;4.47;1.85;;;23.50;63.60;;;;;;5072896;28;20048;-62
2022/07/19 02:56:19;;;;;;;3.38;2.00;;;23.40;63.60;;;;;;5072453;28;20044;-62
2022/07/19 02:58:45;;;;;;;3.47;1.80;;;23.50;63.60;;;;;;5071298;28;20040;-62
2022/07/19 03:01:10;;;;;;;4.38;2.03;;;23.50;63.60;;;;;;5073187;28;20051;-62
2022/07/19 03:03:46;;;;;;;3.03;1.88;;;23.50;63.60;;;;;;5072330;28;20114;-62
2022/07/19 03:06:13;;;;;;;3.63;2.10;;;23.50;63.60;;;;;;5071391;28;20056;-61
2022/07/19 03:08:38;;;;;;;3.90;2.20;;;23.50;63.60;;;;;;5072803;28;20143;-61
2022/07/19 03:11:04;;;;;;;3.63;2.08;;;23.50;63.60;;;;;;5071800;28;20123;-61
2022/07/19 03:13:29;;;;;;;3.83;2.00;;;23.50;63.60;;;;;;5071369;28;20044;-62
2022/07/19 03:15:55;;;;;;;4.45;2.13;;;23.50;63.60;;;;;;5072416;28;20140;-61
2022/07/19 03:18:21;;;;;;;3.65;2.10;;;23.50;63.60;;;;;;5071929;28;20131;-62
2022/07/19 03:20:46;;;;;;;3.85;1.90;;;23.40;63.60;;;;;;5072543;28;20041;-62
2022/07/19 03:23:12;;;;;;;4.32;2.13;;;23.50;63.60;;;;;;5072745;28;20041;-62
2022/07/19 03:25:37;;;;;;;3.30;1.80;;;23.40;63.60;;;;;;5071905;28;20040;-61
2022/07/19 03:28:03;;;;;;;2.85;1.85;;;23.40;63.60;;;;;;5072386;28;20044;-61
2022/07/19 03:30:29;;;;;;;3.17;1.88;;;23.40;63.60;;;;;;5072415;28;20048;-63
2022/07/19 03:32:54;;;;;;;3.67;1.90;;;23.40;63.60;;;;;;5072587;28;20036;-61
2022/07/19 03:35:20;;;;;;;2.85;1.70;;;23.40;63.60;;;;;;5072346;28;20549;-61
2022/07/19 03:37:46;;;;;;;3.25;2.00;;;23.40;63.60;;;;;;5071357;28;20041;-62
2022/07/19 03:40:12;;;;;;;3.63;1.95;;;23.40;63.60;;;;;;5072748;28;20060;-61
2022/07/19 03:42:38;;;;;;;4.00;1.90;;;23.40;63.60;;;;;;5072491;28;20098;-61
2022/07/19 03:45:03;;;;;;;4.55;2.08;;;23.40;63.60;;;;;;5071314;28;20043;-61
2022/07/19 03:47:29;;;;;;;3.28;1.90;;;23.40;63.60;;;;;;5072668;28;20435;-61
2022/07/19 03:49:55;;;;;;;3.35;2.13;;;23.40;63.60;;;;;;5070992;28;20045;-61
2022/07/19 03:52:20;;;;;;;5.60;2.53;;;23.40;63.60;;;;;;5071627;28;20499;-62
2022/07/19 03:54:46;;;;;;;3.70;2.00;;;23.40;63.60;;;;;;5071993;28;20072;-61
2022/07/19 03:57:11;;;;;;;5.43;2.00;;;23.40;63.60;;;;;;5071941;28;20074;-62
2022/07/19 03:59:37;;;;;;;3.00;1.90;;;23.40;63.60;;;;;;5075754;28;20049;-62
2022/07/19 04:02:02;;;;;;;3.33;2.10;;;23.40;63.60;;;;;;5061888;28;20052;-61
2022/07/19 04:04:28;;;;;;;3.72;2.00;;;23.40;63.60;;;;;;5072657;28;20055;-61
2022/07/19 04:06:54;;;;;;;2.92;1.80;;;23.40;63.50;;;;;;5074870;28;20057;-62
2022/07/19 04:09:19;;;;;;;3.72;2.10;;;23.40;63.50;;;;;;5076281;28;20036;-62
2022/07/19 04:11:45;;;;;;;3.25;1.92;;;23.40;63.50;;;;;;5075681;28;20094;-62
2022/07/19 04:14:10;;;;;;;5.22;2.28;;;23.40;63.60;;;;;;5075488;28;20045;-62
2022/07/19 04:16:36;;;;;;;3.97;2.10;;;23.40;63.60;;;;;;5076252;28;20047;-62
2022/07/19 04:19:01;;;;;;;3.20;1.95;;;23.40;63.60;;;;;;5075633;28;20041;-62
2022/07/19 04:21:27;;;;;;;4.22;2.40;;;23.40;63.60;;;;;;5075152;28;20076;-62
2022/07/19 04:23:52;;;;;;;3.58;1.80;;;23.40;63.60;;;;;;5075576;28;20068;-62
2022/07/19 04:26:18;;;;;;;4.03;2.38;;;23.40;63.60;;;;;;5075778;28;20048;-62
2022/07/19 04:28:43;;;;;;;4.80;2.20;;;23.40;63.60;;;;;;5073270;28;20036;-62
2022/07/19 04:31:09;;;;;;;3.50;2.15;;;23.40;63.60;;;;;;5075971;28;20045;-62
2022/07/19 04:33:34;;;;;;;3.80;2.33;;;23.30;63.50;;;;;;5074677;28;20380;-62
2022/07/19 04:36:00;;;;;;;3.08;2.10;;;23.40;63.60;;;;;;5073600;28;20484;-62
2022/07/19 04:38:25;;;;;;;4.05;2.30;;;23.40;63.60;;;;;;5075612;28;20404;-62
2022/07/19 04:40:51;;;;;;;3.45;2.00;;;23.40;64.20;;;;;;5074256;28;20051;-62
2022/07/19 04:43:17;;;;;;;3.25;1.95;;;23.40;63.60;;;;;;5075291;28;20044;-62
2022/07/19 04:45:44;;;;;;;3.80;2.20;;;23.40;63.60;;;;;;5075360;28;20048;-61
2022/07/19 04:48:13;;;;;;;4.22;2.15;;;23.40;63.50;;;;;;5074967;28;20041;-62
2022/07/19 04:50:39;;;;;;;3.70;2.10;;;23.30;63.50;;;;;;5075580;28;20044;-62
2022/07/19 04:53:04;;;;;;;3.85;2.05;;;23.30;63.50;;;;;;5075160;28;20036;-62
2022/07/19 04:55:30;;;;;;;3.42;1.90;;;23.40;63.60;;;;;;5074641;28;20607;-62
2022/07/19 04:57:55;;;;;;;3.67;1.95;;;23.40;63.60;;;;;;5074978;28;20045;-62
2022/07/19 05:00:21;;;;;;;3.55;2.00;;;23.40;63.60;;;;;;5075517;28;20369;-62
2022/07/19 05:02:46;;;;;;;3.42;2.05;;;23.40;63.60;;;;;;5073262;28;20076;-62
2022/07/19 05:05:13;;;;;;;4.18;1.83;;;23.30;63.60;;;;;;5074986;28;20055;-62
2022/07/19 05:07:39;;;;;;;3.30;2.03;;;23.40;63.70;;;;;;5075180;28;20094;-62
2022/07/19 05:10:05;;;;;;;3.72;2.20;;;23.40;63.70;;;;;;5073293;28;20048;-61
2022/07/19 05:12:32;;;;;;;3.35;2.00;;;23.40;63.70;;;;;;5074918;28;20531;-62
2022/07/19 05:14:58;;;;;;;3.08;2.08;;;23.40;63.70;;;;;;5074613;28;20472;-61
2022/07/19 05:17:24;;;;;;;2.75;1.90;;;23.40;63.70;;;;;;5074148;28;20181;-62
2022/07/19 05:19:50;;;;;;;3.03;2.00;;;23.40;63.70;;;;;;5074714;28;20044;-61
2022/07/19 05:22:15;;;;;;;3.28;1.80;;;23.40;63.70;;;;;;5075021;28;20044;-62
2022/07/19 05:24:41;;;;;;;3.33;2.10;;;23.40;63.70;;;;;;5072510;28;20110;-62
2022/07/19 05:27:06;;;;;;;3.70;1.88;;;23.40;63.70;;;;;;5072800;28;20051;-61
2022/07/19 05:29:32;;;;;;;4.32;2.15;;;23.40;63.70;;;;;;5073537;28;20041;-61
2022/07/19 05:31:57;;;;;;;3.45;2.22;;;23.40;63.70;;;;;;5073779;28;20057;-62
2022/07/19 05:34:23;;;;;;;3.65;2.20;;;23.40;63.70;;;;;;5073487;28;20436;-62
2022/07/19 05:36:48;;;;;;;3.97;2.00;;;23.40;63.70;;;;;;5073207;28;20086;-62
2022/07/19 05:39:14;;;;;;;3.53;2.17;;;23.40;63.70;;;;;;5073874;28;20072;-61
2022/07/19 05:41:40;;;;;;;3.90;2.25;;;23.40;63.70;;;;;;5074680;28;20041;-62
2022/07/19 05:44:06;;;;;;;3.53;2.22;;;23.50;63.80;;;;;;5072461;28;20063;-61
2022/07/19 05:46:31;;;;;;;3.75;2.15;;;23.50;63.80;;;;;;5072569;28;20044;-62
2022/07/19 05:48:57;;;;;;;3.95;2.40;;;23.50;63.80;;;;;;5072757;28;20044;-62
2022/07/19 05:51:22;;;;;;;2.95;1.95;;;23.50;63.80;;;;;;5073555;28;20048;-61
2022/07/19 05:53:48;;;;;;;4.78;2.42;;;23.50;63.70;;;;;;5074185;28;20044;-60
2022/07/19 05:56:13;;;;;;;10.35;5.07;;;23.50;63.70;;;;;;5074475;28;20041;-60
2022/07/19 05:58:39;;;;;;;8.00;4.70;;;23.40;62.40;;;;;;5073311;28;20041;-60
2022/07/19 06:01:22;;;;;;;9.45;4.88;;;23.40;61.30;;;;;;5073742;28;20488;-60
2022/07/19 06:03:52;;;;;;;7.80;4.65;;;23.30;60.80;;;;;;5074090;28;20044;-60
2022/07/19 06:06:18;;;;;;;8.50;4.82;;;23.20;60.80;;;;;;5073522;28;20049;-61
2022/07/19 06:08:44;;;;;;;9.32;4.95;;;23.20;60.70;;;;;;5073657;28;20511;-60
2022/07/19 06:11:10;;;;;;;8.38;4.68;;;23.10;60.80;;;;;;5074102;28;20037;-61
2022/07/19 06:13:35;;;;;;;8.82;4.63;;;23.10;61.10;;;;;;5073279;28;20094;-61
2022/07/19 06:16:01;;;;;;;9.48;4.97;;;23.00;61.10;;;;;;5073701;28;20056;-60
2022/07/19 06:18:30;;;;;;;9.95;4.70;;;23.00;61.30;;;;;;5073747;28;20048;-61
2022/07/19 06:20:55;;;;;;;12.30;4.80;;;23.00;61.30;;;;;;5071378;28;20445;-60
2022/07/19 06:23:21;;;;;;;9.10;4.72;;;23.00;61.30;;;;;;5073600;28;20563;-60
2022/07/19 06:25:46;;;;;;;8.35;4.10;;;23.00;61.40;;;;;;5073420;28;20052;-61
2022/07/19 06:28:12;;;;;;;9.57;4.57;;;22.90;61.30;;;;;;5072581;28;20041;-60
2022/07/19 06:30:37;;;;;;;9.57;4.63;;;23.00;61.20;;;;;;5073680;28;20078;-60
2022/07/19 06:33:03;;;;;;;8.20;4.38;;;23.00;61.20;;;;;;5073374;28;20045;-61
2022/07/19 06:35:28;;;;;;;7.20;4.53;;;23.00;61.40;;;;;;5072801;28;20078;-61
2022/07/19 06:37:54;;;;;;;7.45;4.50;;;23.00;61.40;;;;;;5071692;28;20115;-61
2022/07/19 06:40:20;;;;;;;6.90;3.80;;;23.00;61.40;;;;;;5073408;28;20040;-60
2022/07/19 06:42:45;;;;;;;10.30;3.85;;;23.00;61.40;;;;;;5072290;28;20094;-61
2022/07/19 06:45:11;;;;;;;7.90;3.67;;;23.00;61.40;;;;;;5073128;28;20131;-61
2022/07/19 06:47:37;;;;;;;6.68;3.83;;;23.00;61.60;;;;;;5072614;28;20044;-61
2022/07/19 06:50:03;;;;;;;7.13;3.78;;;23.00;61.50;;;;;;5073156;28;20060;-61
2022/07/19 06:52:28;;;;;;;7.70;4.00;;;23.10;61.60;;;;;;5073277;28;20037;-62
2022/07/19 06:54:54;;;;;;;10.13;4.15;;;23.10;61.50;;;;;;5072325;28;20438;-62
2022/07/19 06:57:19;;;;;;;7.05;3.47;;;23.10;61.30;;;;;;5072935;28;20127;-62
2022/07/19 06:59:45;;;;;;;6.47;3.40;;;23.10;61.40;;;;;;5071195;28;20112;-62
2022/07/19 07:02:10;;;;;;;6.95;3.90;;;23.10;61.40;;;;;;5072474;28;20128;-62
2022/07/19 07:04:36;;;;;;;10.13;3.70;;;23.20;61.50;;;;;;5073210;28;20119;-62
2022/07/19 07:07:01;;;;;;;7.22;3.55;;;23.20;61.50;;;;;;5073146;28;20049;-62
2022/07/19 07:09:27;;;;;;;7.65;3.80;;;23.20;61.50;;;;;;5072532;28;20048;-62
2022/07/19 07:11:52;;;;;;;9.75;4.15;;;23.20;61.50;;;;;;5072845;28;20102;-61
2022/07/19 07:14:18;;;;;;;9.63;3.83;;;23.20;61.50;;;;;;5072644;28;20036;-62
2022/07/19 07:16:43;;;;;;;9.60;4.20;;;23.30;61.60;;;;;;5071669;28;20131;-63
2022/07/19 07:19:09;;;;;;;8.63;4.05;;;23.30;61.50;;;;;;5072545;28;20048;-61
2022/07/19 07:21:35;;;;;;;9.00;4.22;;;23.30;61.50;;;;;;5071164;28;20047;-61
2022/07/19 07:24:06;;;;;;;9.35;4.40;;;23.30;61.60;;;;;;5071103;28;20138;-63
2022/07/19 07:26:32;;;;;;;7.75;4.28;;;23.40;61.60;;;;;;5072522;28;20056;-60
2022/07/19 07:28:58;;;;;;;7.60;3.80;;;23.40;61.70;;;;;;5072160;28;20037;-61
2022/07/19 07:31:23;;;;;;;8.38;3.97;;;23.40;61.70;;;;;;5071596;28;20411;-60
2022/07/19 07:33:49;;;;;;;9.32;3.85;;;23.40;61.60;;;;;;5071099;28;20391;-62
2022/07/19 07:36:14;;;;;;;11.45;4.10;;;23.40;61.60;;;;;;5072463;28;20048;-62
2022/07/19 07:38:40;;;;;;;9.48;3.72;;;23.40;61.50;;;;;;5071652;28;20484;-61
2022/07/19 07:41:05;;;;;;;8.70;3.30;;;23.50;61.60;;;;;;5072506;28;20045;-61
2022/07/19 07:43:31;;;;;;;11.15;3.72;;;23.50;61.60;;;;;;5072081;28;20442;-63
2022/07/19 07:45:57;;;;;;;10.85;3.83;;;23.50;61.60;;;;;;5071467;28;20049;-65
2022/07/19 07:48:22;;;;;;;7.10;3.33;;;23.50;61.70;;;;;;5071755;28;20433;-62
2022/07/19 07:50:48;;;;;;;7.20;3.47;;;23.60;62.40;;;;;;5070758;28;20123;-63
2022/07/19 07:53:13;;;;;;;8.45;3.15;;;23.60;61.90;;;;;;5071590;28;20353;-63
2022/07/19 07:55:39;;;;;;;6.50;3.00;;;23.60;62.10;;;;;;5070271;28;20032;-62
2022/07/19 07:58:08;;;;;;;6.68;3.05;;;23.60;62.10;;;;;;5070495;28;20134;-62
2022/07/19 08:00:35;;;;;;;7.18;3.50;;;23.60;62.30;;;;;;5071992;28;20131;-62
2022/07/19 08:03:00;;;;;;;9.63;3.22;;;23.60;62.40;;;;;;5071577;28;20039;-62
2022/07/19 08:05:26;;;;;;;8.13;3.70;;;23.60;62.40;;;;;;5071193;28;20127;-63
2022/07/19 08:07:51;;;;;;;7.22;3.20;;;23.60;62.50;;;;;;5072067;28;20040;-63
2022/07/19 08:10:17;;;;;;;6.53;3.03;;;23.70;62.50;;;;;;5072285;28;20090;-62
2022/07/19 08:12:42;;;;;;;6.10;3.10;;;23.70;62.50;;;;;;5071255;28;20074;-62
2022/07/19 08:15:08;;;;;;;7.90;3.25;;;23.70;62.60;;;;;;5071876;28;20083;-62
2022/07/19 08:17:34;;;;;;;5.40;3.15;;;23.70;62.50;;;;;;5072254;28;20039;-62
2022/07/19 08:20:00;;;;;;;5.03;2.55;;;23.70;62.50;;;;;;5071047;28;20144;-62
2022/07/19 08:22:25;;;;;;;6.20;3.20;;;23.70;62.60;;;;;;5071027;28;20427;-63
2022/07/19 08:24:51;;;;;;;6.88;3.42;;;23.70;62.60;;;;;;5071539;28;20145;-62
2022/07/19 08:27:16;;;;;;;7.43;3.03;;;23.70;62.70;;;;;;5070119;28;20052;-62
2022/07/19 08:29:42;;;;;;;7.60;2.78;;;23.70;62.70;;;;;;5070506;28;20043;-63
2022/07/19 08:32:07;;;;;;;6.28;2.80;;;23.70;62.70;;;;;;5071537;28;20051;-63
2022/07/19 08:34:33;;;;;;;5.95;2.97;;;23.70;62.70;;;;;;5071099;28;20040;-63
2022/07/19 08:37:00;;;;;;;8.00;3.00;;;23.80;62.90;;;;;;5071752;28;20045;-63
2022/07/19 08:39:25;;;;;;;8.32;3.40;;;23.80;62.90;;;;;;5069990;28;20089;-63
2022/07/19 08:41:51;;;;;;;5.68;3.08;;;23.80;63.00;;;;;;5069186;28;20052;-63
2022/07/19 08:44:17;;;;;;;6.88;3.00;;;23.80;63.00;;;;;;5070908;28;20090;-62
2022/07/19 08:46:42;;;;;;;4.93;2.65;;;23.80;63.00;;;;;;5075090;28;20039;-62
2022/07/19 08:49:09;;;;;;;5.90;2.65;;;23.80;62.90;;;;;;5056144;28;20621;-61
2022/07/19 08:51:34;;;;;;;5.78;2.90;;;23.80;62.90;;;;;;5073282;28;20101;-61
2022/07/19 08:54:01;;;;;;;4.35;2.55;;;23.90;63.00;;;;;;5056161;28;20500;-61
2022/07/19 08:59:11;;;;;;;6.07;2.80;;;23.90;63.10;;;;;;5073420;28;20095;-61
2022/07/19 09:01:37;;;;;;;6.72;2.75;;;23.90;63.10;;;;;;5073865;28;20497;-60
2022/07/19 09:04:09;;;;;;;6.00;3.33;;;23.90;63.30;;;;;;5073447;28;20076;-60
2022/07/19 09:06:39;;;;;;;7.35;2.80;;;23.90;63.40;;;;;;5073204;28;20047;-60
2022/07/19 09:09:05;;;;;;;6.43;2.60;;;24.00;63.60;;;;;;5074285;28;20048;-60
2022/07/19 09:11:35;;;;;;;5.18;2.70;;;23.90;63.40;;;;;;5074374;28;20092;-60
2022/07/19 09:14:10;;;;;;;5.10;2.58;;;24.00;63.60;;;;;;5074032;28;20052;-60
2022/07/19 09:16:56;;;;;;;6.63;3.20;;;24.00;63.70;;;;;;5073828;28;20052;-61
2022/07/19 09:19:23;;;;;;;4.72;2.97;;;24.00;63.70;;;;;;5074741;28;20040;-61
2022/07/19 09:21:57;;;;;;;6.45;2.72;;;24.00;63.60;;;;;;5074330;28;20048;-61
2022/07/19 09:24:23;;;;;;;5.90;2.78;;;24.00;63.60;;;;;;5072171;28;20055;-61
2022/07/19 09:27:04;;;;;;;5.20;2.70;;;24.00;63.60;;;;;;5073975;28;20127;-61
2022/07/19 09:29:31;;;;;;;4.30;2.47;;;24.00;63.50;;;;;;5071633;28;20083;-61
2022/07/19 09:32:03;;;;;;;5.90;2.85;;;24.00;63.50;;;;;;5073579;28;20220;-61
2022/07/19 09:34:33;;;;;;;5.53;2.42;;;24.00;63.60;;;;;;5072505;28;20076;-61
2022/07/19 09:37:09;;;;;;;5.55;2.60;;;24.00;63.60;;;;;;5072319;28;20127;-61
2022/07/19 09:39:35;;;;;;;5.90;2.42;;;24.10;63.80;;;;;;5074689;28;20047;-61
2022/07/19 09:42:02;;;;;;;4.07;2.60;;;24.10;63.80;;;;;;5074280;28;20048;-61
2022/07/19 09:44:28;;;;;;;4.80;2.42;;;24.10;63.70;;;;;;5073751;28;20041;-61
2022/07/19 09:46:54;;;;;;;4.88;2.75;;;24.10;63.60;;;;;;5072788;28;20048;-61
2022/07/19 09:49:19;;;;;;;6.90;2.40;;;24.10;63.60;;;;;;5074277;28;20047;-61
2022/07/19 09:51:46;;;;;;;3.40;2.13;;;24.10;63.60;;;;;;5072261;28;20048;-61
2022/07/19 09:54:38;;;;;;;6.57;2.40;;;24.10;63.60;;;;;;5073842;28;20052;-60
2022/07/19 09:57:04;;;;;;;5.93;2.60;;;24.10;63.70;;;;;;5066295;28;20088;-61
2022/07/19 09:59:30;;;;;;;4.80;2.35;;;24.10;63.60;;;;;;5052122;28;20072;-61
2022/07/19 10:01:56;;;;;;;6.63;2.67;;;24.20;63.60;;;;;;5052679;28;20086;-61
2022/07/19 10:04:23;;;;;;;5.18;2.38;;;24.20;63.60;;;;;;5053853;28;20564;-61
2022/07/19 10:06:49;;;;;;;5.20;2.97;;;24.20;63.60;;;;;;5052985;28;20132;-61
2022/07/19 10:09:17;;;;;;;5.88;2.28;;;24.20;63.60;;;;;;5053224;28;20314;-62
2022/07/19 10:11:43;;;;;;;5.88;2.42;;;24.20;63.60;;;;;;5060201;28;20032;-62
2022/07/19 10:14:09;;;;;;;6.35;2.90;;;24.30;63.80;;;;;;5059918;28;20041;-62
2022/07/19 10:16:58;;;;;;;5.72;2.75;;;24.30;63.90;;;;;;5063698;28;20073;-62
2022/07/19 10:19:43;;;;;;;4.85;2.55;;;24.30;63.80;;;;;;5054266;28;20047;-60
2022/07/19 10:22:20;;;;;;;6.30;2.50;;;24.30;63.90;;;;;;5063654;28;20503;-61
2022/07/19 10:24:59;;;;;;;5.57;2.63;;;24.30;63.80;;;;;;5044620;28;20607;-62
2022/07/19 10:27:25;;;;;;;5.43;2.75;;;24.30;63.90;;;;;;5051705;28;20044;-60
2022/07/19 10:30:11;;;;;;;4.80;2.30;;;24.30;63.90;;;;;;5051543;28;20051;-61
2022/07/19 10:32:37;;;;;;;6.85;2.63;;;24.30;63.80;;;;;;5041552;28;20048;-61
2022/07/19 10:35:22;;;;;;;5.88;2.55;;;24.30;63.70;;;;;;5051852;28;20385;-61
2022/07/19 10:37:49;;;;;;;5.20;2.80;;;24.30;63.70;;;;;;5053133;28;20086;-61
2022/07/19 10:40:37;;;;;;;6.07;2.70;;;24.40;63.60;;;;;;5051321;28;20127;-61
2022/07/19 10:43:06;;;;;;;5.57;3.15;;;24.40;63.60;;;;;;5053106;28;20079;-61
2022/07/19 10:45:32;;;;;;;4.78;3.08;;;24.40;63.70;;;;;;5052069;28;20059;-61
2022/07/19 10:47:58;;;;;;;5.63;2.75;;;24.40;63.80;;;;;;5052487;28;20041;-61
2022/07/19 10:50:26;;;;;;;4.22;2.63;;;24.40;63.70;;;;;;5053220;28;20045;-61
2022/07/19 10:52:52;;;;;;;4.43;2.63;;;24.50;63.70;;;;;;5035176;28;20060;-61
2022/07/19 10:55:18;;;;;;;4.80;2.80;;;24.40;63.50;;;;;;5051346;28;20052;-61
2022/07/19 10:57:45;;;;;;;5.43;2.45;;;24.50;63.30;;;;;;5063280;28;20554;-61
2022/07/19 11:00:23;;;;;;;6.63;3.17;;;24.50;63.30;;;;;;5072595;28;20044;-61
2022/07/19 11:02:50;;;;;;;5.68;2.60;;;24.50;63.10;;;;;;5071448;28;20059;-60
2022/07/19 11:05:26;;;;;;;4.68;2.75;;;24.50;63.10;;;;;;5054470;28;20051;-61
2022/07/19 11:07:56;;;;;;;4.68;2.70;;;24.50;63.10;;;;;;5067904;28;20056;-61
2022/07/19 11:10:29;;;;;;;5.30;2.97;;;24.50;63.00;;;;;;5072794;28;20036;-61
2022/07/19 11:12:55;;;;;;;4.38;2.53;;;24.50;63.00;;;;;;5069751;28;20044;-61
2022/07/19 11:15:22;;;;;;;5.75;2.90;;;24.50;63.00;;;;;;5071517;28;20041;-62
2022/07/19 11:18:20;;;;;;;6.63;2.78;;;24.50;62.90;;;;;;5070690;28;20119;-61
2022/07/19 11:20:46;;;;;;;6.80;3.10;;;24.50;62.80;;;;;;5039939;28;20041;-61
2022/07/19 11:23:16;;;;;;;7.63;3.42;;;24.60;62.80;;;;;;5067294;28;20464;-61
2022/07/19 11:25:43;;;;;;;8.70;3.58;;;24.60;62.80;;;;;;5051223;28;20145;-60
2022/07/19 11:28:22;;;;;;;7.10;3.30;;;24.60;62.80;;;;;;5035458;28;20127;-59
2022/07/19 11:30:47;;;;;;;6.85;3.33;;;24.60;62.80;;;;;;5091654;28;20071;-59
2022/07/19 11:33:15;;;;;;;9.57;3.80;;;24.60;62.80;;;;;;5092862;28;20067;-60
2022/07/19 11:35:54;;;;;;;8.52;4.13;;;24.60;62.90;;;;;;5092806;28;20043;-59
2022/07/19 11:38:20;;;;;;;7.80;4.35;;;24.60;62.70;;;;;;5091638;28;20054;-60
2022/07/19 11:40:46;;;;;;;7.45;3.40;;;24.60;62.70;;;;;;5074238;28;20123;-60
2022/07/19 11:43:11;;;;;;;8.45;3.83;;;24.70;62.80;;;;;;5091808;28;20091;-60
2022/07/19 11:45:45;;;;;;;6.35;3.13;;;24.70;62.70;;;;;;5092806;28;20050;-60
2022/07/19 11:48:11;;;;;;;7.70;3.65;;;24.70;62.70;;;;;;5092916;28;20089;-60
2022/07/19 11:50:38;;;;;;;6.97;3.15;;;24.70;62.70;;;;;;5092112;28;20036;-60
2022/07/19 11:53:04;;;;;;;7.50;3.38;;;24.70;62.70;;;;;;5085538;28;20492;-61
2022/07/19 11:55:37;;;;;;;8.55;3.40;;;24.70;62.70;;;;;;5071731;28;20098;-60
2022/07/19 11:58:07;;;;;;;7.25;3.28;;;24.70;62.80;;;;;;5070500;28;20127;-61
2022/07/19 12:00:33;;;;;;;8.18;3.45;;;24.70;62.80;;;;;;5070298;28;20091;-61
2022/07/19 12:03:03;;;;;;;6.75;3.10;;;24.70;62.80;;;;;;5071890;28;20044;-62
2022/07/19 12:05:29;;;;;;;7.47;3.17;;;24.70;62.80;;;;;;5071336;28;20044;-61
2022/07/19 12:07:58;;;;;;;11.75;3.55;;;24.60;62.80;;;;;;5070810;28;20440;-61
2022/07/19 12:10:34;;;;;;;9.00;3.30;;;24.70;62.90;;;;;;5071158;28;20380;-61
2022/07/19 12:13:01;;;;;;;7.70;3.50;;;24.70;62.90;;;;;;5071357;28;20080;-61
2022/07/19 12:15:26;;;;;;;5.22;2.95;;;24.70;63.00;;;;;;5072372;28;20045;-62
2022/07/19 12:17:58;;;;;;;7.22;3.30;;;24.70;63.00;;;;;;5071327;28;20056;-62
2022/07/19 12:20:23;;;;;;;6.15;3.00;;;24.70;63.00;;;;;;5075648;28;20135;-62
2022/07/19 12:22:51;;;;;;;6.97;2.88;;;24.60;63.00;;;;;;5075840;28;20115;-62
2022/07/19 12:25:34;;;;;;;5.18;2.53;;;24.70;63.10;;;;;;5074892;28;20385;-61
2022/07/19 12:27:59;;;;;;;6.05;3.00;;;24.60;63.00;;;;;;5060159;28;20106;-61
2022/07/19 12:30:26;;;;;;;6.45;2.60;;;24.60;63.10;;;;;;5075991;28;20037;-61
2022/07/19 12:32:52;;;;;;;6.80;2.80;;;24.60;63.00;;;;;;5073503;28;20048;-61
2022/07/19 12:35:20;;;;;;;6.85;2.60;;;24.60;63.00;;;;;;5074650;28;20055;-61
2022/07/19 12:37:47;;;;;;;4.50;2.47;;;24.60;63.00;;;;;;5075556;28;20040;-62
2022/07/19 12:40:17;;;;;;;4.93;2.50;;;24.60;63.00;;;;;;5074973;28;20051;-61
2022/07/19 12:43:05;;;;;;;8.18;2.80;;;24.60;63.10;;;;;;5074455;28;20536;-62
2022/07/19 12:45:43;;;;;;;6.65;2.72;;;24.60;63.00;;;;;;5075648;28;20140;-61
2022/07/19 12:48:13;;;;;;;5.47;2.45;;;24.60;63.10;;;;;;5073839;28;20040;-61